Time;durP1;ratioP1;P1;durP2;ratioP2;P2;SDS_P1;SDS_P2;PMS_P1;PMS_P2;Temp;Humidity;BMP_temperature;BMP_pressure;BME280_temperature;BME280_humidity;BME280_pressure;Samples;Min_cycle;Max_cycle;Signal;HPM_P1;HPM_P2
2023/06/05 00:00:22;;;;;;;3.53;3.22;;;;;;;;;;6283887;22;20094;-93
2023/06/05 00:09:33;;;;;;;6.57;3.65;;;;;;;;;;6304180;22;20460;-80
2023/06/05 00:12:01;;;;;;;2.95;2.75;;;;;;;;;;6281147;22;20030;-94
2023/06/05 00:14:30;;;;;;;3.97;3.58;;;;;;;;;;6308746;22;20094;-94
2023/06/05 00:17:04;;;;;;;4.35;4.05;;;;;;;;;;6282504;22;20518;-94
2023/06/05 00:19:30;;;;;;;4.57;4.15;;;;;;;;;;6283179;22;20019;-94
2023/06/05 00:22:01;;;;;;;5.30;4.72;;;;;;;;;;6281809;22;20057;-94
2023/06/05 00:24:28;;;;;;;5.07;3.90;;;;;;;;;;6308766;22;20012;-94
2023/06/05 00:26:56;;;;;;;4.63;4.22;;;;;;;;;;6282136;22;20027;-93
2023/06/05 00:29:23;;;;;;;4.97;4.47;;;;;;;;;;6282057;22;20027;-94
2023/06/05 00:31:49;;;;;;;5.22;4.72;;;;;;;;;;6282834;22;20094;-94
2023/06/05 00:34:17;;;;;;;4.25;3.85;;;;;;;;;;6282580;22;20011;-93
2023/06/05 00:36:43;;;;;;;5.45;4.53;;;;;;;;;;6282743;22;20069;-94
2023/06/05 00:39:09;;;;;;;4.90;4.57;;;;;;;;;;6282430;22;20425;-93
2023/06/05 00:41:37;;;;;;;4.15;3.85;;;;;;;;;;6282204;22;20011;-93
2023/06/05 00:44:03;;;;;;;5.32;4.38;;;;;;;;;;6281929;22;20391;-95
2023/06/05 00:46:32;;;;;;;4.75;4.45;;;;;;;;;;6282033;22;20046;-95
2023/06/05 00:49:00;;;;;;;5.47;5.07;;;;;;;;;;6282508;22;20022;-94
2023/06/05 00:51:26;;;;;;;6.03;4.72;;;;;;;;;;6282749;22;20073;-93
2023/06/05 00:53:55;;;;;;;5.10;4.70;;;;;;;;;;6281928;22;20015;-93
2023/06/05 00:56:22;;;;;;;5.05;4.57;;;;;;;;;;6282337;22;20019;-93
2023/06/05 00:58:50;;;;;;;5.97;5.25;;;;;;;;;;6282090;22;20337;-93
2023/06/05 01:01:17;;;;;;;4.57;4.25;;;;;;;;;;6282287;22;20019;-93
2023/06/05 01:03:44;;;;;;;5.32;4.78;;;;;;;;;;6282232;22;20069;-93
2023/06/05 01:06:11;;;;;;;5.35;4.75;;;;;;;;;;6283396;22;20016;-94
2023/06/05 01:08:41;;;;;;;5.63;5.13;;;;;;;;;;6284337;22;20472;-94
2023/06/05 01:11:30;;;;;;;5.72;5.22;;;;;;;;;;6283533;22;20019;-94
2023/06/05 01:14:17;;;;;;;6.18;5.47;;;;;;;;;;6276095;22;20457;-93
2023/06/05 01:16:45;;;;;;;5.20;4.80;;;;;;;;;;6309370;22;20445;-93
2023/06/05 01:19:14;;;;;;;5.70;5.20;;;;;;;;;;6284728;22;20422;-93
2023/06/05 01:21:41;;;;;;;6.28;5.38;;;;;;;;;;6309848;22;20334;-93
2023/06/05 01:24:14;;;;;;;6.00;5.30;;;;;;;;;;6285053;22;20043;-95
2023/06/05 01:26:52;;;;;;;6.18;5.57;;;;;;;;;;6259785;22;20098;-94
2023/06/05 01:29:21;;;;;;;7.00;6.38;;;;;;;;;;6284785;22;20069;-93
2023/06/05 01:31:48;;;;;;;6.20;5.70;;;;;;;;;;6310172;22;20110;-94
2023/06/05 01:34:19;;;;;;;7.35;6.65;;;;;;;;;;6283981;22;20065;-93
2023/06/05 01:36:46;;;;;;;7.18;5.97;;;;;;;;;;6284498;22;20038;-93
2023/06/05 01:39:13;;;;;;;6.60;6.00;;;;;;;;;;6283852;22;20023;-92
2023/06/05 01:41:39;;;;;;;6.40;5.90;;;;;;;;;;6283840;22;20023;-93
2023/06/05 01:44:09;;;;;;;5.85;5.35;;;;;;;;;;6282986;22;20023;-92
2023/06/05 01:46:38;;;;;;;6.38;5.78;;;;;;;;;;6283342;22;20038;-92
2023/06/05 01:49:05;;;;;;;6.30;5.65;;;;;;;;;;6283478;22;20015;-93
2023/06/05 01:51:31;;;;;;;5.60;5.18;;;;;;;;;;6283494;22;20027;-93
2023/06/05 01:53:57;;;;;;;5.97;5.45;;;;;;;;;;6283582;22;20038;-93
2023/06/05 01:56:24;;;;;;;6.72;6.03;;;;;;;;;;6283622;22;20016;-94
2023/06/05 01:58:53;;;;;;;6.28;5.78;;;;;;;;;;6284129;22;20098;-93
2023/06/05 02:01:22;;;;;;;7.32;6.82;;;;;;;;;;6283735;22;20323;-92
2023/06/05 02:18:32;;;;;;;7.43;6.63;;;;;;;;;;6307695;22;20026;-91
2023/06/05 02:20:58;;;;;;;7.90;7.03;;;;;;;;;;6257329;22;20027;-92
2023/06/05 02:23:24;;;;;;;7.32;6.80;;;;;;;;;;6308536;22;20505;-92
2023/06/05 02:25:50;;;;;;;8.35;7.60;;;;;;;;;;6309234;22;20019;-91
2023/06/05 02:28:19;;;;;;;8.25;7.55;;;;;;;;;;6293589;22;20069;-92
2023/06/05 02:30:53;;;;;;;8.55;7.75;;;;;;;;;;6295170;22;20043;-91
2023/06/05 02:33:23;;;;;;;8.43;7.63;;;;;;;;;;6318181;22;20053;-91
2023/06/05 02:35:49;;;;;;;9.70;8.07;;;;;;;;;;6310882;22;20337;-92
2023/06/05 02:38:15;;;;;;;8.23;7.50;;;;;;;;;;6284263;22;20073;-92
2023/06/05 02:40:44;;;;;;;8.85;8.20;;;;;;;;;;6283046;22;20019;-92
2023/06/05 02:43:17;;;;;;;9.02;8.23;;;;;;;;;;6283386;22;20016;-91
2023/06/05 02:45:43;;;;;;;8.10;7.47;;;;;;;;;;6308237;22;20037;-91
2023/06/05 02:48:09;;;;;;;8.55;7.75;;;;;;;;;;6281581;22;20054;-91
2023/06/05 02:50:35;;;;;;;9.05;8.32;;;;;;;;;;6256456;22;20077;-91
2023/06/05 02:53:02;;;;;;;9.10;8.30;;;;;;;;;;6308652;22;20412;-91
2023/06/05 02:55:31;;;;;;;9.18;8.27;;;;;;;;;;6308423;22;20015;-91
2023/06/05 02:57:57;;;;;;;8.65;7.68;;;;;;;;;;6308333;22;20015;-93
2023/06/05 03:00:25;;;;;;;8.93;7.57;;;;;;;;;;6282658;22;20016;-92
2023/06/05 03:02:52;;;;;;;8.48;7.68;;;;;;;;;;6282624;22;20015;-91
2023/06/05 03:05:18;;;;;;;7.85;7.25;;;;;;;;;;6307782;22;20063;-92
2023/06/05 03:07:44;;;;;;;7.82;7.30;;;;;;;;;;6307967;22;20018;-91
2023/06/05 03:10:11;;;;;;;8.45;7.68;;;;;;;;;;6282305;22;20023;-93
2023/06/05 03:12:37;;;;;;;7.90;7.03;;;;;;;;;;6282629;22;20022;-93
2023/06/05 03:15:06;;;;;;;7.93;7.32;;;;;;;;;;6283070;22;20491;-92
2023/06/05 03:17:32;;;;;;;9.10;8.20;;;;;;;;;;6281634;22;20023;-92
2023/06/05 03:19:58;;;;;;;9.15;8.38;;;;;;;;;;6308536;22;20098;-94
2023/06/05 03:22:26;;;;;;;8.63;7.85;;;;;;;;;;6282802;22;20172;-94
2023/06/05 03:24:55;;;;;;;9.25;8.32;;;;;;;;;;6282684;22;20011;-93
2023/06/05 03:27:21;;;;;;;8.35;7.50;;;;;;;;;;6283597;22;20050;-92
2023/06/05 03:29:47;;;;;;;8.80;8.00;;;;;;;;;;6309611;22;20011;-92
2023/06/05 03:32:14;;;;;;;8.82;8.13;;;;;;;;;;6308611;22;20057;-91
2023/06/05 03:34:42;;;;;;;9.75;8.75;;;;;;;;;;6257313;22;20076;-93
2023/06/05 03:37:14;;;;;;;8.95;8.07;;;;;;;;;;6257561;22;20027;-91
2023/06/05 03:39:40;;;;;;;8.32;7.63;;;;;;;;;;6282648;22;20030;-92
2023/06/05 03:42:10;;;;;;;8.60;7.78;;;;;;;;;;6308164;22;20030;-92
2023/06/05 03:44:37;;;;;;;8.32;7.53;;;;;;;;;;6282856;22;20053;-93
2023/06/05 03:47:03;;;;;;;8.38;7.57;;;;;;;;;;6282087;22;20015;-92
2023/06/05 03:49:29;;;;;;;7.72;7.13;;;;;;;;;;6256444;22;20057;-92
2023/06/05 03:52:03;;;;;;;7.30;6.60;;;;;;;;;;6282017;22;20023;-92
2023/06/05 03:54:32;;;;;;;7.43;6.72;;;;;;;;;;6282346;22;20022;-93
2023/06/05 03:57:00;;;;;;;8.18;7.45;;;;;;;;;;6308672;22;20015;-94
2023/06/05 03:59:28;;;;;;;7.15;6.55;;;;;;;;;;6283212;22;20019;-92
2023/06/05 04:01:54;;;;;;;7.72;7.03;;;;;;;;;;6282770;22;20072;-92
2023/06/05 04:04:20;;;;;;;6.60;6.10;;;;;;;;;;6257906;22;20019;-92
2023/06/05 04:06:47;;;;;;;8.20;6.60;;;;;;;;;;6284410;22;20026;-92
2023/06/05 04:09:13;;;;;;;7.18;6.45;;;;;;;;;;6309693;22;20018;-93
2023/06/05 04:11:41;;;;;;;6.38;5.85;;;;;;;;;;6304074;22;20007;-93
2023/06/05 04:14:09;;;;;;;7.38;5.90;;;;;;;;;;6303858;22;20010;-93
2023/06/05 04:16:38;;;;;;;6.85;6.22;;;;;;;;;;6318350;22;20019;-93
2023/06/05 04:19:09;;;;;;;7.07;6.38;;;;;;;;;;6259645;22;20079;-92
2023/06/05 04:21:36;;;;;;;8.00;6.13;;;;;;;;;;6284838;22;20015;-94
2023/06/05 04:24:07;;;;;;;6.30;5.80;;;;;;;;;;6283015;22;20019;-93
2023/06/05 04:26:41;;;;;;;6.95;6.28;;;;;;;;;;6309217;22;20023;-94
2023/06/05 04:29:13;;;;;;;7.47;6.73;;;;;;;;;;6284565;22;20073;-92
2023/06/05 04:31:41;;;;;;;6.82;6.22;;;;;;;;;;6283730;22;20249;-93
2023/06/05 04:34:08;;;;;;;6.50;5.93;;;;;;;;;;6309593;22;20018;-93
2023/06/05 04:36:34;;;;;;;7.43;6.72;;;;;;;;;;6308594;22;20022;-92
2023/06/05 04:39:03;;;;;;;8.75;6.68;;;;;;;;;;6306808;22;20026;-92
2023/06/05 04:41:32;;;;;;;8.55;6.55;;;;;;;;;;6258717;22;20038;-91
2023/06/05 04:43:59;;;;;;;7.10;6.43;;;;;;;;;;6309818;22;20015;-91
2023/06/05 04:46:26;;;;;;;9.65;6.97;;;;;;;;;;6309921;22;20045;-93
2023/06/05 04:48:55;;;;;;;7.45;6.22;;;;;;;;;;6309627;22;20033;-93
2023/06/05 04:51:22;;;;;;;8.98;6.45;;;;;;;;;;6258540;22;20023;-93
2023/06/05 04:53:52;;;;;;;8.75;7.13;;;;;;;;;;6283807;22;20019;-93
2023/06/05 04:56:18;;;;;;;7.70;6.85;;;;;;;;;;6309774;22;20015;-92
2023/06/05 04:58:45;;;;;;;7.60;6.85;;;;;;;;;;6258632;22;20342;-92
2023/06/05 05:01:12;;;;;;;6.93;6.10;;;;;;;;;;6309342;22;20014;-88
2023/06/05 05:03:38;;;;;;;9.07;7.50;;;;;;;;;;6308514;22;20015;-87
2023/06/05 05:06:04;;;;;;;10.88;7.60;;;;;;;;;;6283936;22;20015;-93
2023/06/05 05:08:31;;;;;;;8.05;7.35;;;;;;;;;;6310232;22;20051;-93
2023/06/05 05:11:00;;;;;;;8.38;6.80;;;;;;;;;;6309349;22;20015;-94
2023/06/05 05:13:28;;;;;;;7.03;6.30;;;;;;;;;;6284587;22;20015;-92
2023/06/05 05:15:54;;;;;;;8.25;6.90;;;;;;;;;;6297791;22;20022;-94
2023/06/05 05:18:20;;;;;;;7.57;6.82;;;;;;;;;;6310643;22;20015;-93
2023/06/05 05:20:49;;;;;;;8.38;6.75;;;;;;;;;;6310475;22;20399;-93
2023/06/05 05:23:15;;;;;;;7.50;6.75;;;;;;;;;;6284423;22;20020;-93
2023/06/05 05:25:41;;;;;;;8.70;7.82;;;;;;;;;;6284185;22;20011;-93
2023/06/05 05:28:08;;;;;;;6.88;6.30;;;;;;;;;;6285740;22;20576;-94
2023/06/05 05:30:35;;;;;;;10.27;6.88;;;;;;;;;;6311005;22;20015;-93
2023/06/05 05:33:01;;;;;;;9.25;7.60;;;;;;;;;;6258871;22;20022;-93
2023/06/05 05:35:27;;;;;;;8.05;6.85;;;;;;;;;;6310034;22;20015;-93
2023/06/05 05:37:53;;;;;;;7.82;6.68;;;;;;;;;;6309993;22;20019;-91
2023/06/05 05:40:19;;;;;;;7.35;6.13;;;;;;;;;;6285556;22;20015;-94
2023/06/05 05:42:45;;;;;;;8.05;6.35;;;;;;;;;;6284629;22;20433;-95
2023/06/05 05:45:11;;;;;;;5.78;5.20;;;;;;;;;;6311098;22;20012;-94
2023/06/05 05:47:37;;;;;;;6.05;5.43;;;;;;;;;;6311353;22;20022;-94
2023/06/05 05:50:05;;;;;;;6.30;5.68;;;;;;;;;;6261196;22;20467;-92
2023/06/05 05:52:31;;;;;;;6.32;5.82;;;;;;;;;;6309848;22;20011;-94
2023/06/05 05:54:59;;;;;;;7.13;6.53;;;;;;;;;;6284902;22;20149;-93
2023/06/05 05:57:27;;;;;;;6.03;5.55;;;;;;;;;;6311923;22;20022;-94
2023/06/05 05:59:53;;;;;;;5.93;5.15;;;;;;;;;;6311946;22;20441;-95
2023/06/05 06:02:20;;;;;;;6.00;5.45;;;;;;;;;;6311849;22;20019;-93
2023/06/05 06:04:47;;;;;;;6.40;5.85;;;;;;;;;;6310488;22;20020;-95
2023/06/05 06:07:13;;;;;;;6.18;5.57;;;;;;;;;;6284943;22;20019;-92
2023/06/05 06:09:40;;;;;;;6.03;5.30;;;;;;;;;;6283642;22;20019;-93
2023/06/05 06:12:10;;;;;;;6.95;5.63;;;;;;;;;;6283179;22;20015;-93
2023/06/05 06:14:36;;;;;;;5.85;5.35;;;;;;;;;;6283936;22;20078;-94
2023/06/05 06:17:05;;;;;;;5.32;4.75;;;;;;;;;;6284787;22;20019;-93
2023/06/05 06:19:36;;;;;;;6.53;5.60;;;;;;;;;;6282286;22;20429;-92
2023/06/05 06:22:02;;;;;;;6.63;5.13;;;;;;;;;;6308425;22;20015;-90
2023/06/05 06:24:28;;;;;;;5.35;4.95;;;;;;;;;;6307686;22;20058;-91
2023/06/05 06:26:56;;;;;;;5.95;5.45;;;;;;;;;;6282438;22;20369;-91
2023/06/05 06:29:27;;;;;;;6.10;5.60;;;;;;;;;;6309399;22;20012;-96
2023/06/05 06:31:56;;;;;;;5.97;5.38;;;;;;;;;;6309335;22;20042;-95
2023/06/05 06:34:24;;;;;;;6.30;5.10;;;;;;;;;;6283770;22;20015;-95
2023/06/05 06:36:50;;;;;;;5.93;4.85;;;;;;;;;;6310703;22;20019;-94
2023/06/05 06:39:18;;;;;;;5.38;4.95;;;;;;;;;;6285608;22;20015;-95
2023/06/05 06:41:44;;;;;;;5.05;4.75;;;;;;;;;;6284812;22;20019;-95
2023/06/05 06:44:10;;;;;;;5.78;5.35;;;;;;;;;;6283356;22;20023;-96
2023/06/05 06:46:36;;;;;;;5.68;4.70;;;;;;;;;;6309662;22;20015;-95
2023/06/05 06:49:03;;;;;;;6.38;5.75;;;;;;;;;;6308984;22;20053;-94
2023/06/05 06:51:29;;;;;;;7.32;5.53;;;;;;;;;;6284345;22;20123;-93
2023/06/05 06:53:55;;;;;;;6.85;5.28;;;;;;;;;;6285055;22;20012;-94
2023/06/05 06:56:21;;;;;;;6.78;5.78;;;;;;;;;;6285019;22;20065;-96
2023/06/05 06:58:48;;;;;;;6.68;5.43;;;;;;;;;;6284697;22;20098;-95
2023/06/05 07:01:14;;;;;;;5.43;4.95;;;;;;;;;;6311294;22;20377;-95
2023/06/05 07:03:42;;;;;;;7.53;4.78;;;;;;;;;;6284740;22;20023;-96
2023/06/05 07:06:11;;;;;;;5.10;4.60;;;;;;;;;;6286025;22;20011;-95
2023/06/05 07:08:37;;;;;;;4.82;4.43;;;;;;;;;;6281787;22;20081;-94
2023/06/05 07:11:03;;;;;;;5.10;4.53;;;;;;;;;;6283044;22;20037;-95
2023/06/05 07:13:32;;;;;;;5.40;4.90;;;;;;;;;;6283160;22;20019;-95
2023/06/05 07:15:58;;;;;;;4.88;4.30;;;;;;;;;;6282381;22;20042;-94
2023/06/05 07:18:26;;;;;;;5.00;4.63;;;;;;;;;;6305640;22;20568;-95
2023/06/05 07:20:55;;;;;;;5.72;5.22;;;;;;;;;;6279309;22;20054;-96
2023/06/05 07:23:28;;;;;;;4.80;4.47;;;;;;;;;;6310410;22;20011;-93
2023/06/05 07:25:56;;;;;;;4.85;4.55;;;;;;;;;;6311015;22;20011;-94
2023/06/05 07:28:25;;;;;;;5.38;4.97;;;;;;;;;;6311180;22;20062;-94
2023/06/05 07:30:51;;;;;;;5.05;4.60;;;;;;;;;;6310966;22;20023;-94
2023/06/05 07:33:18;;;;;;;5.28;4.88;;;;;;;;;;6285452;22;20015;-94
2023/06/05 07:35:45;;;;;;;4.90;4.60;;;;;;;;;;6259088;22;20022;-93
2023/06/05 07:38:12;;;;;;;5.35;4.95;;;;;;;;;;6284080;22;20050;-94
2023/06/05 07:40:38;;;;;;;5.53;5.13;;;;;;;;;;6284133;22;20019;-94
2023/06/05 07:43:04;;;;;;;5.32;4.95;;;;;;;;;;6310327;22;20011;-95
2023/06/05 07:45:32;;;;;;;5.63;4.60;;;;;;;;;;6284855;22;20022;-93
2023/06/05 07:47:58;;;;;;;5.93;4.70;;;;;;;;;;6310257;22;20026;-93
2023/06/05 07:50:25;;;;;;;4.80;4.40;;;;;;;;;;6284860;22;20043;-94
2023/06/05 07:52:51;;;;;;;5.97;3.97;;;;;;;;;;6284684;22;20080;-95
2023/06/05 07:55:17;;;;;;;5.35;4.90;;;;;;;;;;6287467;22;20016;-95
2023/06/05 07:57:43;;;;;;;3.92;3.63;;;;;;;;;;6318310;22;20015;-94
2023/06/05 08:00:10;;;;;;;4.25;3.97;;;;;;;;;;6285004;22;20015;-94
2023/06/05 08:02:37;;;;;;;4.18;3.88;;;;;;;;;;6308927;22;20508;-93
2023/06/05 08:05:03;;;;;;;4.60;4.28;;;;;;;;;;6308330;22;20078;-91
2023/06/05 08:07:29;;;;;;;4.22;3.90;;;;;;;;;;6308126;22;20015;-95
2023/06/05 08:09:58;;;;;;;4.28;3.70;;;;;;;;;;6282457;22;20019;-94
2023/06/05 08:12:24;;;;;;;4.13;3.72;;;;;;;;;;6309509;22;20037;-94
2023/06/05 08:14:50;;;;;;;3.97;3.58;;;;;;;;;;6284429;22;20090;-95
2023/06/05 08:17:17;;;;;;;6.18;4.40;;;;;;;;;;6308807;22;20012;-89
2023/06/05 08:19:43;;;;;;;4.93;3.92;;;;;;;;;;6309780;22;20015;-93
2023/06/05 08:22:09;;;;;;;4.13;3.67;;;;;;;;;;6283138;22;20468;-92
2023/06/05 08:24:36;;;;;;;4.25;3.92;;;;;;;;;;6307600;22;20015;-93
2023/06/05 08:27:02;;;;;;;4.47;4.07;;;;;;;;;;6281916;22;20151;-94
2023/06/05 08:29:28;;;;;;;4.57;4.18;;;;;;;;;;6307620;22;20449;-93
2023/06/05 08:31:57;;;;;;;5.82;4.07;;;;;;;;;;6309630;22;20015;-93
2023/06/05 08:34:25;;;;;;;5.03;3.92;;;;;;;;;;6309691;22;20468;-92
2023/06/05 08:36:51;;;;;;;4.30;4.00;;;;;;;;;;6282884;22;20015;-93
2023/06/05 08:39:18;;;;;;;5.05;3.55;;;;;;;;;;6284631;22;20093;-95
2023/06/05 08:41:44;;;;;;;5.47;4.50;;;;;;;;;;6313378;22;20015;-93
2023/06/05 08:44:15;;;;;;;4.53;4.13;;;;;;;;;;6287007;22;20074;-94
2023/06/05 08:46:43;;;;;;;3.85;3.53;;;;;;;;;;6309916;22;20027;-93
2023/06/05 08:49:11;;;;;;;3.88;3.58;;;;;;;;;;6307910;22;20015;-93
2023/06/05 08:51:40;;;;;;;3.63;3.33;;;;;;;;;;6282971;22;20015;-95
2023/06/05 08:54:12;;;;;;;3.75;3.40;;;;;;;;;;6283220;22;20012;-95
2023/06/05 08:56:39;;;;;;;4.93;3.30;;;;;;;;;;6286612;22;20527;-93
2023/06/05 08:59:06;;;;;;;4.40;3.38;;;;;;;;;;6284457;22;20476;-92
2023/06/05 09:01:35;;;;;;;4.03;2.80;;;;;;;;;;6283327;22;20015;-93
2023/06/05 09:04:01;;;;;;;3.30;3.10;;;;;;;;;;6308362;22;20439;-95
2023/06/05 09:06:29;;;;;;;3.15;2.85;;;;;;;;;;6282296;22;20015;-92
2023/06/05 09:08:55;;;;;;;3.35;3.13;;;;;;;;;;6285227;22;20026;-92
2023/06/05 09:11:25;;;;;;;3.17;2.92;;;;;;;;;;6318245;22;20020;-94
2023/06/05 09:13:51;;;;;;;2.95;2.75;;;;;;;;;;6310328;22;20015;-95
2023/06/05 09:16:21;;;;;;;3.28;2.28;;;;;;;;;;6287666;22;20015;-91
2023/06/05 09:19:00;;;;;;;2.60;2.40;;;;;;;;;;6332903;22;20025;-91
2023/06/05 09:24:26;;;;;;;3.50;2.47;;;;;;;;;;6323206;22;20034;-94
2023/06/05 09:26:57;;;;;;;5.25;2.50;;;;;;;;;;6316509;22;20011;-93
2023/06/05 09:29:27;;;;;;;3.28;2.97;;;;;;;;;;6295638;22;20405;-96
2023/06/05 09:31:57;;;;;;;2.50;2.20;;;;;;;;;;6287443;22;20081;-95
2023/06/05 09:34:24;;;;;;;4.00;2.47;;;;;;;;;;6285523;22;20026;-93
2023/06/05 09:36:50;;;;;;;3.30;2.20;;;;;;;;;;6285533;22;20452;-92
2023/06/05 09:39:17;;;;;;;2.05;1.80;;;;;;;;;;6284263;22;20015;-92
2023/06/05 09:41:46;;;;;;;2.63;2.40;;;;;;;;;;6284678;22;20433;-94
2023/06/05 09:44:13;;;;;;;1.83;1.73;;;;;;;;;;6284229;22;20015;-92
2023/06/05 09:46:50;;;;;;;2.80;1.90;;;;;;;;;;6283801;22;20106;-92
2023/06/05 09:49:17;;;;;;;3.00;2.35;;;;;;;;;;6310714;22;20050;-94
2023/06/05 09:51:49;;;;;;;4.10;2.35;;;;;;;;;;6310570;22;20065;-92
2023/06/05 09:54:17;;;;;;;2.80;1.88;;;;;;;;;;6310566;22;20068;-94
2023/06/05 09:56:53;;;;;;;2.42;1.70;;;;;;;;;;6259893;22;20050;-93
2023/06/05 09:59:21;;;;;;;2.03;1.38;;;;;;;;;;6286992;22;20042;-92
2023/06/05 10:01:48;;;;;;;5.30;2.00;;;;;;;;;;6286170;22;20025;-93
2023/06/05 10:04:16;;;;;;;1.85;1.50;;;;;;;;;;6285701;22;20101;-92
2023/06/05 10:06:42;;;;;;;2.28;1.70;;;;;;;;;;6283618;22;20468;-92
2023/06/05 10:09:11;;;;;;;3.50;1.20;;;;;;;;;;6284565;22;20046;-95
2023/06/05 10:11:40;;;;;;;3.42;2.10;;;;;;;;;;6309882;22;20015;-93
2023/06/05 10:14:07;;;;;;;3.15;2.00;;;;;;;;;;6285509;22;20122;-92
2023/06/05 10:16:33;;;;;;;2.15;1.60;;;;;;;;;;6309776;22;20062;-94
2023/06/05 10:19:03;;;;;;;2.83;1.60;;;;;;;;;;6283574;22;20453;-94
2023/06/05 10:21:31;;;;;;;1.98;1.30;;;;;;;;;;6310621;22;20012;-93
2023/06/05 10:24:18;;;;;;;2.65;1.10;;;;;;;;;;6310775;22;20018;-93
2023/06/05 10:26:44;;;;;;;2.60;1.60;;;;;;;;;;6312686;22;20015;-93
2023/06/05 10:29:36;;;;;;;1.35;1.23;;;;;;;;;;6311764;22;20019;-94
2023/06/05 10:32:07;;;;;;;3.10;1.40;;;;;;;;;;6286241;22;20050;-95
2023/06/05 10:34:42;;;;;;;2.63;1.70;;;;;;;;;;6287616;22;20015;-95
2023/06/05 10:37:26;;;;;;;2.35;1.35;;;;;;;;;;6324730;22;20015;-95
2023/06/05 10:40:03;;;;;;;1.35;0.93;;;;;;;;;;6313956;22;20021;-96
2023/06/05 10:42:38;;;;;;;1.42;1.10;;;;;;;;;;6287722;22;20483;-95
2023/06/05 10:45:05;;;;;;;2.47;0.90;;;;;;;;;;6286873;22;20019;-94
2023/06/05 10:47:35;;;;;;;1.95;0.98;;;;;;;;;;6285768;22;20102;-93
2023/06/05 10:50:18;;;;;;;1.63;1.15;;;;;;;;;;6283766;22;20132;-93
2023/06/05 10:52:48;;;;;;;1.70;1.30;;;;;;;;;;6283691;22;20022;-94
2023/06/05 10:55:18;;;;;;;4.20;1.40;;;;;;;;;;6284315;22;20072;-93
2023/06/05 10:58:03;;;;;;;4.65;0.98;;;;;;;;;;6309134;22;20011;-93
2023/06/05 11:00:32;;;;;;;1.40;0.80;;;;;;;;;;6284631;22;20019;-93
2023/06/05 11:03:01;;;;;;;1.58;1.02;;;;;;;;;;6283687;22;20023;-94
2023/06/05 11:05:27;;;;;;;2.05;1.20;;;;;;;;;;6260086;22;20015;-94
2023/06/05 11:08:16;;;;;;;1.50;1.15;;;;;;;;;;6283148;22;20092;-92
2023/06/05 11:11:03;;;;;;;1.75;1.15;;;;;;;;;;6282531;22;20022;-94
2023/06/05 11:13:48;;;;;;;3.72;1.17;;;;;;;;;;6282065;22;20015;-94
2023/06/05 11:16:25;;;;;;;4.13;0.90;;;;;;;;;;6283682;22;20018;-91
2023/06/05 11:18:54;;;;;;;2.55;1.00;;;;;;;;;;6281791;22;20094;-93
2023/06/05 11:21:20;;;;;;;3.78;0.90;;;;;;;;;;6283121;22;20029;-95
2023/06/05 11:24:19;;;;;;;1.52;1.10;;;;;;;;;;6282931;22;20019;-93
2023/06/05 11:26:45;;;;;;;1.00;0.70;;;;;;;;;;6249537;22;20434;-93
2023/06/05 11:29:15;;;;;;;1.23;0.70;;;;;;;;;;6308430;22;20018;-92
2023/06/05 11:31:43;;;;;;;3.00;0.95;;;;;;;;;;6282482;22;20026;-93
2023/06/05 11:34:15;;;;;;;1.90;0.70;;;;;;;;;;6282621;22;20054;-91
2023/06/05 11:36:42;;;;;;;0.95;0.70;;;;;;;;;;6308168;22;20017;-94
2023/06/05 11:39:10;;;;;;;1.30;0.55;;;;;;;;;;6277680;22;20077;-89
2023/06/05 11:41:43;;;;;;;2.00;0.80;;;;;;;;;;6306179;22;20098;-94
2023/06/05 11:44:09;;;;;;;0.93;0.73;;;;;;;;;;6278839;22;20015;-90
2023/06/05 11:46:43;;;;;;;2.65;0.70;;;;;;;;;;6269722;22;20102;-93
2023/06/05 11:49:25;;;;;;;1.40;1.30;;;;;;;;;;6303899;22;20015;-93
2023/06/05 11:51:55;;;;;;;2.65;0.60;;;;;;;;;;6303900;22;20022;-93
2023/06/05 11:54:40;;;;;;;3.80;0.52;;;;;;;;;;6280972;22;20346;-92
2023/06/05 11:57:12;;;;;;;2.03;0.70;;;;;;;;;;6306316;22;20015;-91
2023/06/05 11:59:40;;;;;;;3.50;0.80;;;;;;;;;;6282018;22;20021;-92
2023/06/05 12:02:07;;;;;;;3.53;0.80;;;;;;;;;;6281457;22;20019;-91
2023/06/05 12:04:34;;;;;;;3.10;0.93;;;;;;;;;;6282284;22;20315;-91
2023/06/05 12:07:01;;;;;;;1.20;0.70;;;;;;;;;;6308064;22;20536;-90
2023/06/05 12:09:30;;;;;;;3.47;0.98;;;;;;;;;;6281672;22;20094;-90
2023/06/05 12:12:14;;;;;;;2.47;0.60;;;;;;;;;;6307187;22;20392;-91
2023/06/05 12:14:40;;;;;;;0.85;0.65;;;;;;;;;;6282051;22;20085;-92
2023/06/05 12:17:10;;;;;;;2.47;0.70;;;;;;;;;;6282004;22;20023;-91
2023/06/05 12:19:37;;;;;;;2.25;0.60;;;;;;;;;;6280650;22;20468;-90
2023/06/05 12:22:05;;;;;;;1.65;0.60;;;;;;;;;;6307455;22;20054;-91
2023/06/05 12:24:31;;;;;;;0.90;0.80;;;;;;;;;;6281908;22;20027;-88
2023/06/05 12:27:03;;;;;;;2.15;0.80;;;;;;;;;;6309078;22;20374;-91
2023/06/05 12:29:35;;;;;;;4.75;0.90;;;;;;;;;;6307432;22;20314;-92
2023/06/05 12:32:02;;;;;;;0.98;0.60;;;;;;;;;;6281891;22;20042;-92
2023/06/05 12:34:52;;;;;;;1.25;0.80;;;;;;;;;;6281607;22;20019;-92
2023/06/05 12:37:29;;;;;;;2.15;0.68;;;;;;;;;;6281840;22;20401;-91
2023/06/05 12:39:55;;;;;;;1.10;0.70;;;;;;;;;;6282609;22;20075;-91
2023/06/05 12:42:22;;;;;;;1.67;0.80;;;;;;;;;;6282735;22;20441;-93
2023/06/05 12:44:48;;;;;;;2.03;0.77;;;;;;;;;;6281130;22;20057;-87
2023/06/05 12:47:14;;;;;;;1.17;0.80;;;;;;;;;;6307713;22;20015;-91
2023/06/05 12:49:40;;;;;;;2.33;0.70;;;;;;;;;;6280656;22;20454;-91
2023/06/05 12:52:12;;;;;;;1.20;0.50;;;;;;;;;;6281407;22;20169;-92
2023/06/05 12:54:39;;;;;;;0.65;0.43;;;;;;;;;;6284007;22;20027;-92
2023/06/05 12:57:07;;;;;;;2.45;1.10;;;;;;;;;;6282807;22;20015;-92
2023/06/05 12:59:36;;;;;;;2.05;1.00;;;;;;;;;;6307603;22;20065;-92
2023/06/05 13:02:03;;;;;;;1.27;0.65;;;;;;;;;;6309530;22;20011;-93
2023/06/05 13:04:31;;;;;;;0.93;0.77;;;;;;;;;;6309971;22;20015;-93
2023/06/05 13:06:57;;;;;;;2.72;0.70;;;;;;;;;;6282601;22;20019;-89
2023/06/05 13:09:23;;;;;;;1.88;0.70;;;;;;;;;;6308681;22;20022;-88
2023/06/05 13:11:49;;;;;;;0.98;0.93;;;;;;;;;;6308525;22;20023;-89
2023/06/05 13:14:15;;;;;;;1.33;0.65;;;;;;;;;;6282571;22;20019;-90
2023/06/05 13:16:42;;;;;;;1.13;0.52;;;;;;;;;;6282501;22;20054;-89
2023/06/05 13:19:10;;;;;;;2.95;0.80;;;;;;;;;;6286092;22;20026;-92
2023/06/05 13:21:36;;;;;;;1.98;0.73;;;;;;;;;;6286885;22;20490;-89
2023/06/05 13:24:02;;;;;;;1.10;0.70;;;;;;;;;;6308615;22;20094;-88
2023/06/05 13:26:35;;;;;;;2.60;0.52;;;;;;;;;;6308579;22;20019;-88
2023/06/05 13:29:01;;;;;;;3.28;0.68;;;;;;;;;;6283242;22;20011;-90
2023/06/05 13:31:28;;;;;;;1.23;0.60;;;;;;;;;;6309359;22;20030;-91
2023/06/05 13:33:54;;;;;;;0.90;0.50;;;;;;;;;;6309479;22;20012;-91
2023/06/05 13:36:23;;;;;;;0.98;0.60;;;;;;;;;;6283101;22;20509;-89
2023/06/05 13:38:49;;;;;;;4.20;0.60;;;;;;;;;;6309304;22;20015;-91
2023/06/05 13:41:18;;;;;;;0.90;0.43;;;;;;;;;;6309653;22;20011;-91
2023/06/05 13:43:44;;;;;;;1.67;0.60;;;;;;;;;;6258351;22;20153;-90
2023/06/05 13:46:10;;;;;;;1.00;0.47;;;;;;;;;;6309123;22;20050;-90
2023/06/05 13:48:37;;;;;;;1.98;0.40;;;;;;;;;;6282410;22;20098;-92
2023/06/05 13:51:03;;;;;;;2.55;0.70;;;;;;;;;;6309231;22;20022;-91
2023/06/05 13:53:34;;;;;;;1.60;0.50;;;;;;;;;;6283477;22;20442;-90
2023/06/05 13:56:04;;;;;;;1.33;0.63;;;;;;;;;;6284521;22;20023;-94
2023/06/05 13:58:30;;;;;;;2.65;0.50;;;;;;;;;;6283044;22;20026;-92
2023/06/05 14:00:57;;;;;;;2.78;0.50;;;;;;;;;;6309320;22;20019;-91
2023/06/05 14:03:26;;;;;;;2.05;0.65;;;;;;;;;;6283176;22;20019;-91
2023/06/05 14:05:58;;;;;;;0.82;0.40;;;;;;;;;;6284071;22;20015;-93
2023/06/05 14:08:24;;;;;;;1.48;0.50;;;;;;;;;;6283707;22;20505;-91
2023/06/05 14:10:50;;;;;;;2.00;0.50;;;;;;;;;;6283384;22;20055;-92
2023/06/05 14:13:17;;;;;;;2.10;0.50;;;;;;;;;;6283830;22;20440;-93
2023/06/05 14:15:43;;;;;;;2.42;0.50;;;;;;;;;;6283896;22;20016;-93
2023/06/05 14:18:09;;;;;;;0.88;0.50;;;;;;;;;;6283487;22;20046;-92
2023/06/05 14:20:36;;;;;;;1.52;0.90;;;;;;;;;;6312414;22;20015;-91
2023/06/05 14:23:02;;;;;;;1.10;0.50;;;;;;;;;;6286172;22;20015;-95
2023/06/05 14:25:30;;;;;;;0.93;0.40;;;;;;;;;;6312635;22;20144;-94
2023/06/05 14:27:57;;;;;;;3.15;0.90;;;;;;;;;;6321889;22;20003;-89
2023/06/05 14:30:23;;;;;;;1.50;0.60;;;;;;;;;;6308747;22;20010;-92
2023/06/05 14:32:52;;;;;;;2.00;0.70;;;;;;;;;;6329118;22;20026;-91
2023/06/05 14:35:20;;;;;;;3.08;0.40;;;;;;;;;;6261206;22;20376;-92
2023/06/05 14:37:46;;;;;;;1.67;0.50;;;;;;;;;;6309365;22;20018;-91
2023/06/05 14:40:16;;;;;;;1.83;0.80;;;;;;;;;;6282978;22;20506;-92
2023/06/05 14:42:42;;;;;;;1.30;0.50;;;;;;;;;;6282833;22;20019;-93
2023/06/05 14:45:11;;;;;;;0.70;0.60;;;;;;;;;;6283749;22;20020;-95
2023/06/05 14:47:37;;;;;;;2.80;0.70;;;;;;;;;;6283730;22;20015;-94
2023/06/05 14:50:06;;;;;;;1.48;0.88;;;;;;;;;;6282208;22;20105;-92
2023/06/05 14:52:32;;;;;;;0.63;0.50;;;;;;;;;;6284132;22;20030;-93
2023/06/05 14:54:58;;;;;;;2.90;0.63;;;;;;;;;;6310757;22;20074;-92
2023/06/05 14:57:24;;;;;;;1.05;0.60;;;;;;;;;;6283438;22;20026;-91
2023/06/05 14:59:53;;;;;;;3.10;0.55;;;;;;;;;;6309361;22;20102;-93
2023/06/05 15:02:27;;;;;;;0.80;0.40;;;;;;;;;;6284027;22;20022;-94
2023/06/05 15:04:53;;;;;;;;;;;;;;;;;;6310617;22;20090;-95
2023/06/05 15:07:20;;;;;;;1.92;0.68;;;;;;;;;;6284393;22;19960;-94
2023/06/05 15:09:47;;;;;;;2.67;0.80;;;;;;;;;;6284270;22;20452;-92
2023/06/05 15:12:15;;;;;;;1.45;0.57;;;;;;;;;;6284395;22;20020;-93
2023/06/05 15:14:41;;;;;;;0.80;0.52;;;;;;;;;;6284934;22;20438;-92